Time;durP1;ratioP1;P1;durP2;ratioP2;P2;SDS_P1;SDS_P2;PMS_P1;PMS_P2;Temp;Humidity;BMP_temperature;BMP_pressure;BME280_temperature;BME280_humidity;BME280_pressure;Samples;Min_cycle;Max_cycle;Signal;HPM_P1;HPM_P2
2023/04/19 00:02:08;;;;;;;;;;;;;;;20.70;39.96;102821.16;5135130;27;20295;-73
2023/04/19 00:04:33;;;;;;;;;;;;;;;20.68;40.05;102829.38;5131592;27;19933;-72
2023/04/19 00:06:59;;;;;;;;;;;;;;;20.66;40.04;102827.81;5138049;27;19911;-72
2023/04/19 00:09:24;;;;;;;;;;;;;;;20.65;40.01;102821.56;5129623;27;19911;-73
2023/04/19 00:11:49;;;;;;;;;;;;;;;20.65;40.25;102816.16;5132998;27;20000;-72
2023/04/19 00:14:14;;;;;;;;;;;;;;;20.63;40.00;102817.28;5131220;27;20014;-72
2023/04/19 00:16:39;;;;;;;;;;;;;;;20.63;40.29;102825.38;5131567;27;19923;-72
2023/04/19 00:19:05;;;;;;;;;;;;;;;20.62;40.07;102823.69;5131392;27;19911;-72
2023/04/19 00:21:30;;;;;;;;;;;;;;;20.61;40.02;102824.69;5132007;27;19915;-72
2023/04/19 00:23:55;;;;;;;;;;;;;;;20.59;40.21;102822.09;5130571;27;20004;-72
2023/04/19 00:26:21;;;;;;;;;;;;;;;20.59;40.13;102822.09;5132028;27;19921;-72
2023/04/19 00:28:46;;;;;;;;;;;;;;;20.58;40.15;102816.81;5135507;27;19911;-72
2023/04/19 00:31:11;;;;;;;;;;;;;;;20.56;40.14;102816.97;5129090;27;19911;-72
2023/04/19 00:33:36;;;;;;;;;;;;;;;20.55;40.29;102819.78;5125223;27;19911;-72
2023/04/19 00:36:01;;;;;;;;;;;;;;;20.55;40.33;102814.38;5131176;27;19983;-71
2023/04/19 00:38:27;;;;;;;;;;;;;;;20.53;40.25;102819.94;5129962;27;19926;-72
2023/04/19 00:40:52;;;;;;;;;;;;;;;20.53;40.21;102819.94;5134078;27;19915;-72
2023/04/19 00:43:18;;;;;;;;;;;;;;;20.52;40.28;102817.34;5132463;27;19923;-72
2023/04/19 00:45:43;;;;;;;;;;;;;;;20.51;40.33;102811.09;5133089;27;19954;-72
2023/04/19 00:48:09;;;;;;;;;;;;;;;20.49;40.15;102818.47;5129333;27;19927;-72
2023/04/19 00:50:34;;;;;;;;;;;;;;;20.48;40.21;102805.97;5132355;27;19979;-72
2023/04/19 00:53:00;;;;;;;;;;;;;;;20.47;40.33;102804.19;5129704;27;19912;-72
2023/04/19 00:55:25;;;;;;;;;;;;;;;20.46;40.07;102806.03;5135072;27;20381;-72
2023/04/19 00:57:50;;;;;;;;;;;;;;;20.45;40.34;102809.75;5129632;27;19916;-72
2023/04/19 01:00:16;;;;;;;;;;;;;;;20.44;40.17;102802.63;5137985;27;19919;-72
2023/04/19 01:02:41;;;;;;;;;;;;;;;20.43;40.19;102806.34;5133476;27;19918;-72
2023/04/19 01:05:06;;;;;;;;;;;;;;;20.42;40.08;102801.91;5129704;27;19919;-73
2023/04/19 01:07:32;;;;;;;;;;;;;;;20.42;40.45;102798.34;5134844;27;19920;-72
2023/04/19 01:09:57;;;;;;;;;;;;;;;20.40;40.22;102801.19;5129731;28;19916;-72
2023/04/19 01:12:22;;;;;;;;;;;;;;;20.39;40.26;102799.47;5131062;27;20417;-73
2023/04/19 01:14:48;;;;;;;;;;;;;;;20.38;40.36;102797.75;5131809;27;19940;-72
2023/04/19 01:17:13;;;;;;;;;;;;;;;20.38;40.24;102800.44;5125759;27;19916;-73
2023/04/19 01:19:39;;;;;;;;;;;;;;;20.36;40.35;102791.63;5132846;28;19911;-73
2023/04/19 01:22:05;;;;;;;;;;;;;;;20.36;40.23;102790.78;5113996;28;19912;-72
2023/04/19 01:24:30;;;;;;;;;;;;;;;20.36;40.48;102793.47;5130376;28;19912;-72
2023/04/19 01:26:56;;;;;;;;;;;;;;;20.34;40.32;102784.63;5132889;28;19918;-72
2023/04/19 01:29:21;;;;;;;;;;;;;;;20.32;40.29;102787.47;5134843;28;19915;-72
2023/04/19 01:31:50;;;;;;;;;;;;;;;20.32;40.53;102787.47;5130171;28;19922;-73
2023/04/19 01:34:15;;;;;;;;;;;;;;;20.31;40.33;102791.19;5134853;28;19912;-72
2023/04/19 01:36:40;;;;;;;;;;;;;;;20.30;40.25;102789.44;5128556;28;19916;-72
2023/04/19 01:39:06;;;;;;;;;;;;;;;20.30;40.22;102785.88;5129165;28;19912;-72
2023/04/19 01:41:31;;;;;;;;;;;;;;;20.28;40.33;102783.34;5135020;27;19912;-72
2023/04/19 01:43:56;;;;;;;;;;;;;;;20.28;40.52;102787.88;5121262;27;19969;-72
2023/04/19 01:46:21;;;;;;;;;;;;;;;20.27;40.25;102783.47;5134450;27;19956;-72
2023/04/19 01:48:46;;;;;;;;;;;;;;;20.26;40.35;102781.75;5133841;27;19926;-72
2023/04/19 01:51:11;;;;;;;;;;;;;;;20.25;40.53;102789.00;5138390;27;19927;-72
2023/04/19 01:53:37;;;;;;;;;;;;;;;20.24;40.43;102792.69;5133416;27;19916;-72
2023/04/19 01:56:02;;;;;;;;;;;;;;;20.24;40.46;102798.09;5141390;27;19923;-71
2023/04/19 01:58:27;;;;;;;;;;;;;;;20.23;40.44;102793.69;5133684;27;19923;-72
2023/04/19 02:00:52;;;;;;;;;;;;;;;20.21;40.44;102787.53;5138536;27;19956;-72
2023/04/19 02:03:17;;;;;;;;;;;;;;;20.21;40.34;102792.94;5135487;27;19915;-72
2023/04/19 02:05:42;;;;;;;;;;;;;;;20.21;40.43;102795.63;5114364;28;19934;-72
2023/04/19 02:08:08;;;;;;;;;;;;;;;20.19;40.33;102793.09;5134784;27;20224;-72
2023/04/19 02:10:33;;;;;;;;;;;;;;;20.19;40.26;102792.22;5133343;27;20356;-73
2023/04/19 02:12:58;;;;;;;;;;;;;;;20.18;40.28;102788.69;5131707;27;19930;-72
2023/04/19 02:15:23;;;;;;;;;;;;;;;20.17;40.64;102783.38;5133063;27;19916;-73
2023/04/19 02:17:49;;;;;;;;;;;;;;;20.17;40.38;102788.78;5137406;27;19924;-73
2023/04/19 02:20:14;;;;;;;;;;;;;;;20.16;40.61;102784.38;5133322;27;19911;-73
2023/04/19 02:22:39;;;;;;;;;;;;;;;20.15;40.46;102788.94;5137111;27;19911;-72
2023/04/19 02:25:05;;;;;;;;;;;;;;;20.14;40.42;102778.28;5135185;27;19912;-72
2023/04/19 02:27:30;;;;;;;;;;;;;;;20.14;40.50;102789.06;5138644;27;19911;-73
2023/04/19 02:29:56;;;;;;;;;;;;;;;20.13;40.28;102784.63;5135621;27;20378;-72
2023/04/19 02:32:21;;;;;;;;;;;;;;;20.12;40.42;102793.72;5136767;27;20375;-72
2023/04/19 02:34:46;;;;;;;;;;;;;;;20.11;40.29;102792.03;5134552;27;19958;-71
2023/04/19 02:37:11;;;;;;;;;;;;;;;20.11;40.55;102792.88;5131305;27;19919;-72
2023/04/19 02:39:36;;;;;;;;;;;;;;;20.10;40.36;102793.88;5133123;27;19912;-72
2023/04/19 02:42:02;;;;;;;;;;;;;;;20.09;40.47;102796.69;5132484;27;19911;-72
2023/04/19 02:44:27;;;;;;;;;;;;;;;20.08;40.46;102801.22;5135389;27;19964;-72
2023/04/19 02:46:52;;;;;;;;;;;;;;;20.07;40.33;102804.94;5132267;27;19918;-72
2023/04/19 02:49:17;;;;;;;;;;;;;;;20.08;40.44;102797.69;5136019;27;20372;-71
2023/04/19 02:51:43;;;;;;;;;;;;;;;20.05;40.54;102801.53;5124921;27;19919;-72
2023/04/19 02:54:08;;;;;;;;;;;;;;;20.05;40.35;102800.63;5132769;27;20014;-72
2023/04/19 02:56:33;;;;;;;;;;;;;;;20.04;40.32;102805.19;5139995;27;19919;-72
2023/04/19 02:59:01;;;;;;;;;;;;;;;20.03;40.48;102805.31;5136552;27;19980;-72
2023/04/19 03:01:27;;;;;;;;;;;;;;;20.02;40.61;102801.78;5115847;27;19941;-72
2023/04/19 03:03:52;;;;;;;;;;;;;;;20.01;40.40;102799.19;5133010;27;19988;-72
2023/04/19 03:06:17;;;;;;;;;;;;;;;20.00;40.65;102798.31;5133794;27;19920;-72
2023/04/19 03:08:42;;;;;;;;;;;;;;;19.99;40.52;102799.31;5133196;27;19958;-72
2023/04/19 03:11:07;;;;;;;;;;;;;;;19.98;40.61;102794.91;5132623;27;19922;-72
2023/04/19 03:13:33;;;;;;;;;;;;;;;19.97;40.44;102796.75;5131060;27;19919;-72
2023/04/19 03:15:58;;;;;;;;;;;;;;;19.96;40.46;102795.06;5132258;27;20100;-72
2023/04/19 03:18:23;;;;;;;;;;;;;;;19.95;40.31;102787.06;5136943;27;19915;-72
2023/04/19 03:20:48;;;;;;;;;;;;;;;19.95;40.36;102795.16;5133005;27;20007;-72
2023/04/19 03:23:13;;;;;;;;;;;;;;;19.93;40.41;102795.31;5142667;27;19973;-71
2023/04/19 03:25:39;;;;;;;;;;;;;;;19.92;40.45;102800.81;5132585;27;19920;-72
2023/04/19 03:28:04;;;;;;;;;;;;;;;19.91;40.53;102801.81;5124677;27;20372;-71
2023/04/19 03:30:29;;;;;;;;;;;;;;;19.90;40.68;102797.41;5133639;27;20061;-71
2023/04/19 03:32:55;;;;;;;;;;;;;;;19.89;40.73;102796.56;5131929;27;19912;-71
2023/04/19 03:35:21;;;;;;;;;;;;;;;19.89;40.63;102801.09;5132949;27;19912;-72
2023/04/19 03:37:46;;;;;;;;;;;;;;;19.87;40.68;102793.09;5132696;27;19922;-72
2023/04/19 03:40:11;;;;;;;;;;;;;;;19.87;40.62;102795.81;5131587;27;20347;-72
2023/04/19 03:42:36;;;;;;;;;;;;;;;19.85;40.67;102786.16;5130858;27;20383;-72
2023/04/19 03:45:02;;;;;;;;;;;;;;;19.85;40.54;102788.84;5137509;27;19918;-72
2023/04/19 03:47:27;;;;;;;;;;;;;;;19.83;40.45;102788.09;5111691;28;20399;-72
2023/04/19 03:49:52;;;;;;;;;;;;;;;19.83;40.67;102788.94;5140252;27;19918;-72
2023/04/19 03:52:17;;;;;;;;;;;;;;;19.83;40.74;102793.50;5135330;27;19911;-72
2023/04/19 03:54:42;;;;;;;;;;;;;;;19.81;40.49;102793.63;5130935;27;19915;-72
2023/04/19 03:57:08;;;;;;;;;;;;;;;19.80;40.64;102783.84;5135150;27;19992;-72
2023/04/19 03:59:33;;;;;;;;;;;;;;;19.79;40.64;102787.50;5133075;27;20037;-72
2023/04/19 04:01:59;;;;;;;;;;;;;;;19.79;40.78;102781.25;5130599;27;19926;-72
2023/04/19 04:04:24;;;;;;;;;;;;;;;19.77;40.67;102778.69;5129192;27;19916;-72
2023/04/19 04:06:49;;;;;;;;;;;;;;;19.78;40.71;102787.63;5133295;27;19920;-72
2023/04/19 04:09:14;;;;;;;;;;;;;;;19.75;40.75;102783.34;5131006;27;19911;-72
2023/04/19 04:11:39;;;;;;;;;;;;;;;19.75;40.50;102780.63;5133966;27;19916;-72
2023/04/19 04:14:05;;;;;;;;;;;;;;;19.75;40.89;102782.47;5131180;27;20020;-72
2023/04/19 04:16:30;;;;;;;;;;;;;;;19.72;40.68;102776.38;5125486;27;19930;-72
2023/04/19 04:18:55;;;;;;;;;;;;;;;19.73;40.74;102788.03;5136932;27;19912;-72
2023/04/19 04:21:23;;;;;;;;;;;;;;;19.71;40.69;102780.06;5131625;27;19964;-71
2023/04/19 04:23:48;;;;;;;;;;;;;;;19.71;40.56;102779.22;5134848;27;19941;-73
2023/04/19 04:26:13;;;;;;;;;;;;;;;19.70;40.59;102782.88;5129910;27;19912;-71
2023/04/19 04:28:38;;;;;;;;;;;;;;;19.69;40.52;102781.16;5132566;27;19920;-71
2023/04/19 04:31:04;;;;;;;;;;;;;;;19.69;40.76;102786.56;5130276;27;19926;-70
2023/04/19 04:33:29;;;;;;;;;;;;;;;19.69;40.70;102786.56;5134862;27;20528;-71
2023/04/19 04:35:56;;;;;;;;;;;;;;;19.69;41.14;102791.97;5128057;27;19942;-70
2023/04/19 04:38:21;;;;;;;;;;;;;;;19.68;41.34;102784.84;5130830;27;19916;-70
2023/04/19 04:40:53;;;;;;;;;;;;;;;19.68;41.18;102787.56;5129526;27;20329;-69
2023/04/19 04:43:20;;;;;;;;;;;;;;;19.69;41.41;102791.97;5132486;27;20359;-69
2023/04/19 04:45:45;;;;;;;;;;;;;;;19.68;41.09;102788.41;5133617;27;20357;-71
2023/04/19 04:48:11;;;;;;;;;;;;;;;19.69;41.52;102791.97;5134061;27;19926;-70
2023/04/19 04:50:36;;;;;;;;;;;;;;;19.70;41.49;102796.38;5138695;27;19946;-69
2023/04/19 04:53:01;;;;;;;;;;;;;;;19.70;41.39;102796.38;5111705;27;19925;-71
2023/04/19 04:55:26;;;;;;;;;;;;;;;19.69;41.70;102803.59;5133727;27;19919;-69
2023/04/19 04:57:51;;;;;;;;;;;;;;;19.68;41.62;102798.34;5128807;27;19927;-70
2023/04/19 05:00:17;;;;;;;;;;;;;;;19.68;41.69;102796.50;5130033;27;19979;-69
2023/04/19 05:02:42;;;;;;;;;;;;;;;19.70;41.53;102801.75;5130483;27;19911;-72
2023/04/19 05:05:10;;;;;;;;;;;;;;;19.68;41.65;102796.50;5130511;27;19923;-73
2023/04/19 05:07:35;;;;;;;;;;;;;;;19.67;41.75;102800.19;5127576;27;19920;-72
2023/04/19 05:10:00;;;;;;;;;;;;;;;19.68;41.63;102799.19;5133976;27;19918;-72
2023/04/19 05:12:25;;;;;;;;;;;;;;;19.67;41.69;102796.66;5128172;28;19983;-71
2023/04/19 05:14:50;;;;;;;;;;;;;;;19.67;41.68;102792.09;5133846;27;19919;-71
2023/04/19 05:17:15;;;;;;;;;;;;;;;19.67;41.93;102791.25;5133974;27;19922;-70
2023/04/19 05:19:41;;;;;;;;;;;;;;;19.66;41.87;102789.50;5131262;28;19916;-70
2023/04/19 05:22:06;;;;;;;;;;;;;;;19.67;41.56;102794.81;5131673;27;20016;-70
2023/04/19 05:24:31;;;;;;;;;;;;;;;19.67;41.73;102792.09;5130648;28;19952;-72
2023/04/19 05:26:56;;;;;;;;;;;;;;;19.67;41.76;102796.66;5130469;28;19916;-73
2023/04/19 05:29:21;;;;;;;;;;;;;;;19.67;41.87;102797.50;5129181;28;19980;-70
2023/04/19 05:31:46;;;;;;;;;;;;;;;19.67;41.59;102802.91;5129763;28;19912;-72
2023/04/19 05:34:12;;;;;;;;;;;;;;;19.67;41.61;102812.84;5110557;28;19960;-71
2023/04/19 05:36:37;;;;;;;;;;;;;;;19.68;41.92;102819.94;5129588;28;19915;-71
2023/04/19 05:39:02;;;;;;;;;;;;;;;19.67;41.65;102812.84;5131424;28;19922;-70
2023/04/19 05:41:27;;;;;;;;;;;;;;;19.66;41.83;102820.03;5130892;27;19933;-72
2023/04/19 05:43:52;;;;;;;;;;;;;;;19.66;41.68;102813.78;5134971;27;19911;-72
2023/04/19 05:46:18;;;;;;;;;;;;;;;19.66;41.70;102817.34;5134009;28;19911;-72
2023/04/19 05:48:43;;;;;;;;;;;;;;;19.65;41.64;102818.34;5118107;28;19959;-72
2023/04/19 05:51:08;;;;;;;;;;;;;;;19.65;41.79;102812.94;5133514;27;19958;-71
2023/04/19 05:53:33;;;;;;;;;;;;;;;19.66;41.51;102819.19;5107691;28;19980;-71
2023/04/19 05:55:58;;;;;;;;;;;;;;;19.65;41.54;102821.03;5131152;28;20302;-72
2023/04/19 05:58:23;;;;;;;;;;;;;;;19.64;41.70;102816.63;5129688;28;19954;-71
2023/04/19 06:00:50;;;;;;;;;;;;;;;19.64;41.67;102822.03;5127566;28;19923;-73
2023/04/19 06:03:15;;;;;;;;;;;;;;;19.64;41.63;102823.88;5109267;27;19924;-69
2023/04/19 06:05:40;;;;;;;;;;;;;;;19.64;41.50;102821.19;5129458;28;19916;-70
2023/04/19 06:08:06;;;;;;;;;;;;;;;19.63;41.23;102828.41;5130472;27;20002;-74
2023/04/19 06:10:31;;;;;;;;;;;;;;;19.63;41.39;102831.13;5131580;28;19947;-74
2023/04/19 06:12:56;;;;;;;;;;;;;;;19.62;41.37;102833.91;5129484;28;20769;-73
2023/04/19 06:15:21;;;;;;;;;;;;;;;19.61;41.33;102830.38;5131451;28;19915;-73
2023/04/19 06:17:46;;;;;;;;;;;;;;;19.61;41.14;102840.31;5134409;28;19959;-73
2023/04/19 06:20:12;;;;;;;;;;;;;;;19.61;41.40;102838.47;5131337;27;19986;-74
2023/04/19 06:22:44;;;;;;;;;;;;;;;19.60;41.48;102833.19;5130094;28;19937;-73
2023/04/19 06:25:09;;;;;;;;;;;;;;;19.60;41.13;102841.28;5132793;28;20507;-72
2023/04/19 06:27:34;;;;;;;;;;;;;;;19.59;40.99;102835.03;5121708;27;19920;-72
2023/04/19 06:29:59;;;;;;;;;;;;;;;19.60;41.15;102838.56;5134548;27;19915;-72
2023/04/19 06:32:25;;;;;;;;;;;;;;;19.59;41.07;102840.41;5132402;27;19922;-71
2023/04/19 06:34:50;;;;;;;;;;;;;;;19.59;41.33;102842.25;5136180;27;19923;-71
2023/04/19 06:37:15;;;;;;;;;;;;;;;19.59;41.06;102837.72;5136682;27;19920;-70
2023/04/19 06:39:40;;;;;;;;;;;;;;;19.59;41.15;102847.66;5136351;27;19916;-72
2023/04/19 06:42:06;;;;;;;;;;;;;;;19.58;41.34;102837.81;5133927;27;20360;-71
2023/04/19 06:44:31;;;;;;;;;;;;;;;19.57;41.34;102834.28;5135988;27;19919;-72
2023/04/19 06:46:56;;;;;;;;;;;;;;;19.58;41.33;102840.53;5124230;27;19918;-73
2023/04/19 06:49:21;;;;;;;;;;;;;;;19.58;41.16;102837.81;5134437;27;19948;-72
2023/04/19 06:51:46;;;;;;;;;;;;;;;19.57;41.09;102841.50;5134702;27;19918;-73
2023/04/19 06:54:12;;;;;;;;;;;;;;;19.57;41.14;102841.50;5131715;27;19923;-72
2023/04/19 06:56:43;;;;;;;;;;;;;;;19.56;41.22;102837.09;5133094;27;19912;-72
2023/04/19 06:59:09;;;;;;;;;;;;;;;19.12;41.19;102769.63;5135723;27;19923;-72
2023/04/19 07:01:34;;;;;;;;;;;;;;;19.54;41.14;102839.94;5137120;27;19911;-72
2023/04/19 07:04:00;;;;;;;;;;;;;;;19.55;41.03;102838.94;5131536;27;19915;-73
2023/04/19 07:06:25;;;;;;;;;;;;;;;19.55;41.15;102848.88;5137815;27;20261;-72
2023/04/19 07:08:51;;;;;;;;;;;;;;;19.55;40.95;102844.34;5136876;27;19911;-73
2023/04/19 07:11:16;;;;;;;;;;;;;;;19.56;41.06;102854.16;5133016;27;20467;-73
2023/04/19 07:13:41;;;;;;;;;;;;;;;19.54;40.75;102850.75;5138589;27;19996;-72
2023/04/19 07:16:06;;;;;;;;;;;;;;;19.55;40.70;102848.88;5130991;27;19916;-73
2023/04/19 07:18:32;;;;;;;;;;;;;;;19.55;40.83;102844.34;5134463;27;19915;-72
2023/04/19 07:20:57;;;;;;;;;;;;;;;19.55;40.75;102851.59;5133716;27;20334;-72
2023/04/19 07:23:22;;;;;;;;;;;;;;;19.54;40.83;102845.34;5135188;27;19916;-72
2023/04/19 07:25:47;;;;;;;;;;;;;;;19.55;40.85;102841.66;5131449;27;20441;-73
2023/04/19 07:28:12;;;;;;;;;;;;;;;19.55;40.78;102847.03;5133370;27;20317;-73
2023/04/19 07:30:38;;;;;;;;;;;;;;;19.55;40.67;102851.59;5131818;27;19911;-73
2023/04/19 07:33:03;;;;;;;;;;;;;;;19.54;40.73;102850.75;5131917;27;19912;-73
2023/04/19 07:35:29;;;;;;;;;;;;;;;19.55;40.55;102843.50;5119269;27;19915;-73
2023/04/19 07:37:54;;;;;;;;;;;;;;;19.55;40.59;102854.28;5129540;27;19923;-72
2023/04/19 07:40:19;;;;;;;;;;;;;;;19.54;40.54;102848.03;5141571;27;19979;-74
2023/04/19 07:42:44;;;;;;;;;;;;;;;19.55;40.52;102854.28;5133202;27;19916;-72
2023/04/19 07:45:10;;;;;;;;;;;;;;;19.54;40.57;102848.03;5131216;27;19971;-72
2023/04/19 07:47:35;;;;;;;;;;;;;;;19.54;40.65;102845.34;5136238;27;19965;-72
2023/04/19 07:50:00;;;;;;;;;;;;;;;19.54;40.55;102853.44;5134628;27;19932;-72
2023/04/19 07:52:25;;;;;;;;;;;;;;;19.55;40.60;102851.59;5112617;28;19988;-73
2023/04/19 07:54:50;;;;;;;;;;;;;;;19.56;40.25;102856.00;5130722;27;19918;-72
2023/04/19 07:57:16;;;;;;;;;;;;;;;19.54;40.52;102845.34;5120351;28;19922;-72
2023/04/19 07:59:41;;;;;;;;;;;;;;;19.55;40.40;102849.75;5130855;27;19916;-72
2023/04/19 08:02:06;;;;;;;;;;;;;;;19.56;40.32;102847.91;5136074;27;19912;-72
2023/04/19 08:04:32;;;;;;;;;;;;;;;19.55;40.43;102852.44;5130521;27;20038;-73
2023/04/19 08:06:58;;;;;;;;;;;;;;;19.56;40.44;102845.19;5137507;27;19911;-73
2023/04/19 08:09:23;;;;;;;;;;;;;;;19.56;40.24;102839.81;5135463;27;20002;-73
2023/04/19 08:11:48;;;;;;;;;;;;;;;19.56;40.39;102846.06;5131427;27;19919;-73
2023/04/19 08:14:13;;;;;;;;;;;;;;;19.57;40.17;102850.47;5135471;27;19923;-73
2023/04/19 08:16:39;;;;;;;;;;;;;;;19.58;40.32;102845.91;5112159;27;19919;-73
2023/04/19 08:19:04;;;;;;;;;;;;;;;19.57;40.09;102845.06;5129836;27;19920;-73
2023/04/19 08:21:30;;;;;;;;;;;;;;;19.58;40.17;102837.81;5131845;27;20342;-72
2023/04/19 08:23:55;;;;;;;;;;;;;;;19.58;40.04;102838.72;5130952;27;19938;-71
2023/04/19 08:26:21;;;;;;;;;;;;;;;19.58;40.02;102843.22;5131709;27;19908;-73
2023/04/19 08:28:46;;;;;;;;;;;;;;;19.59;40.06;102840.41;5114618;27;19912;-73
2023/04/19 08:31:12;;;;;;;;;;;;;;;19.60;40.07;102835.88;5132223;27;19918;-73
2023/04/19 08:33:37;;;;;;;;;;;;;;;19.59;40.20;102835.03;5133900;27;19915;-73
2023/04/19 08:36:05;;;;;;;;;;;;;;;19.60;40.23;102841.28;5136790;27;20468;-73
2023/04/19 08:38:30;;;;;;;;;;;;;;;19.61;40.28;102840.31;5130991;27;19937;-72
2023/04/19 08:40:56;;;;;;;;;;;;;;;19.62;40.21;102825.81;5134609;27;19911;-72
2023/04/19 08:43:21;;;;;;;;;;;;;;;19.63;40.14;102824.88;5112033;27;19916;-71
2023/04/19 08:45:46;;;;;;;;;;;;;;;19.63;40.23;102819.47;5112807;27;19912;-72
2023/04/19 08:48:12;;;;;;;;;;;;;;;19.64;40.21;102816.63;5114778;28;19933;-73
2023/04/19 08:50:37;;;;;;;;;;;;;;;19.64;40.22;102822.03;5126846;27;19911;-73
2023/04/19 08:53:02;;;;;;;;;;;;;;;19.65;39.95;102817.50;5128427;27;19916;-73
2023/04/19 08:55:28;;;;;;;;;;;;;;;19.66;39.85;102811.94;5114563;27;19964;-73
2023/04/19 08:57:54;;;;;;;;;;;;;;;19.67;40.24;102819.09;5114359;27;19926;-72
2023/04/19 09:00:20;;;;;;;;;;;;;;;19.69;40.13;102805.47;5107006;27;19915;-72
2023/04/19 09:02:49;;;;;;;;;;;;;;;19.70;40.21;102816.13;5120318;27;19958;-72
2023/04/19 09:05:15;;;;;;;;;;;;;;;19.70;39.89;102813.41;5129694;27;19911;-69
2023/04/19 09:07:41;;;;;;;;;;;;;;;19.72;39.99;102816.00;5135680;27;19922;-72
2023/04/19 09:10:07;;;;;;;;;;;;;;;19.72;39.99;102816.00;5114240;28;19924;-73
2023/04/19 09:12:33;;;;;;;;;;;;;;;19.74;39.84;102811.31;5129900;27;19919;-72
2023/04/19 09:14:59;;;;;;;;;;;;;;;19.74;39.93;102808.63;5131590;27;20073;-73
2023/04/19 09:17:24;;;;;;;;;;;;;;;19.76;39.65;102792.31;5130289;28;19932;-72
2023/04/19 09:19:49;;;;;;;;;;;;;;;19.77;39.91;102811.06;5128345;27;19981;-72
2023/04/19 09:22:15;;;;;;;;;;;;;;;19.78;39.75;102801.97;5132116;28;19920;-73
2023/04/19 09:24:40;;;;;;;;;;;;;;;19.79;40.06;102810.94;5133531;28;20014;-72
2023/04/19 09:27:05;;;;;;;;;;;;;;;19.80;39.88;102802.72;5130132;28;19937;-73
2023/04/19 09:29:30;;;;;;;;;;;;;;;19.82;39.69;102805.28;5136442;28;19911;-72
2023/04/19 09:31:57;;;;;;;;;;;;;;;19.83;39.75;102804.28;5132204;28;19912;-73
2023/04/19 09:34:23;;;;;;;;;;;;;;;19.84;39.86;102801.50;5132944;28;19911;-73
2023/04/19 09:36:48;;;;;;;;;;;;;;;19.86;39.74;102796.81;5134267;28;19964;-72
2023/04/19 09:39:13;;;;;;;;;;;;;;;19.87;39.80;102793.09;5129953;28;19954;-72
2023/04/19 09:41:52;;;;;;;;;;;;;;;19.89;39.83;102785.75;5113619;28;19920;-72
2023/04/19 09:44:17;;;;;;;;;;;;;;;19.91;39.77;102785.59;5129989;27;19915;-72
2023/04/19 09:46:44;;;;;;;;;;;;;;;19.92;39.84;102785.50;5110648;28;19918;-72
2023/04/19 09:49:12;;;;;;;;;;;;;;;19.95;39.61;102787.06;5130322;28;19912;-72
2023/04/19 09:51:43;;;;;;;;;;;;;;;19.96;39.60;102776.16;5134649;28;19922;-72
2023/04/19 09:54:09;;;;;;;;;;;;;;;19.98;39.53;102774.16;5129657;28;19992;-72
2023/04/19 09:56:35;;;;;;;;;;;;;;;20.01;39.52;102785.69;5132306;28;20439;-73
2023/04/19 09:59:01;;;;;;;;;;;;;;;20.03;39.42;102768.38;5132108;28;19916;-74
2023/04/19 10:01:27;;;;;;;;;;;;;;;20.05;39.45;102766.41;5129426;28;19915;-72
2023/04/19 10:03:52;;;;;;;;;;;;;;;20.07;39.58;102763.56;5117278;27;19911;-73
2023/04/19 10:06:18;;;;;;;;;;;;;;;20.10;39.67;102777.66;5119723;27;19978;-71
2023/04/19 10:08:44;;;;;;;;;;;;;;;20.13;39.66;102771.13;5133060;27;19920;-70
2023/04/19 10:11:09;;;;;;;;;;;;;;;20.15;39.54;102770.03;5132614;27;19916;-72
2023/04/19 10:13:34;;;;;;;;;;;;;;;20.19;39.71;102766.06;5117309;27;19919;-72
2023/04/19 10:16:00;;;;;;;;;;;;;;;20.22;39.92;102770.38;5116571;27;19931;-72
2023/04/19 10:18:25;;;;;;;;;;;;;;;20.25;39.91;102761.97;5133463;27;19930;-72
2023/04/19 10:21:00;;;;;;;;;;;;;;;20.28;40.08;102768.97;5114636;27;19912;-70
2023/04/19 10:23:25;;;;;;;;;;;;;;;20.30;39.83;102762.44;5136309;27;19947;-69
2023/04/19 10:25:54;;;;;;;;;;;;;;;20.32;40.02;102760.47;5117766;27;19919;-72
2023/04/19 10:28:19;;;;;;;;;;;;;;;20.36;39.93;102750.25;5133385;27;19916;-69
2023/04/19 10:30:51;;;;;;;;;;;;;;;20.38;39.91;102753.66;5138686;27;19923;-68
2023/04/19 10:33:23;;;;;;;;;;;;;;;20.41;40.40;102759.66;5134519;27;19919;-68
2023/04/19 10:35:48;;;;;;;;;;;;;;;20.43;40.41;102757.69;5114756;27;19922;-67
2023/04/19 10:38:15;;;;;;;;;;;;;;;20.46;40.13;102754.72;5118602;27;20002;-68
2023/04/19 10:41:02;;;;;;;;;;;;;;;20.49;40.33;102731.16;5133177;27;20400;-67
2023/04/19 10:43:30;;;;;;;;;;;;;;;20.53;40.51;102733.47;5131864;27;19956;-67
2023/04/19 10:46:00;;;;;;;;;;;;;;;20.55;40.54;102731.47;5101932;27;19912;-73
2023/04/19 10:48:26;;;;;;;;;;;;;;;20.59;40.43;102726.63;5133212;27;20368;-71
2023/04/19 10:50:57;;;;;;;;;;;;;;;20.62;40.54;102715.56;5134894;27;19934;-71
2023/04/19 10:53:41;;;;;;;;;;;;;;;20.65;40.26;102723.41;5133655;27;20288;-69
2023/04/19 10:56:06;;;;;;;;;;;;;;;20.68;40.45;102717.72;5136758;27;19920;-71
2023/04/19 10:58:31;;;;;;;;;;;;;;;20.70;40.26;102711.19;5136647;27;19923;-70
2023/04/19 11:01:33;;;;;;;;;;;;;;;20.73;40.34;102710.06;5115183;27;19913;-70
2023/04/19 11:03:58;;;;;;;;;;;;;;;20.77;40.46;102707.94;5092609;28;19912;-70
2023/04/19 11:06:26;;;;;;;;;;;;;;;20.80;40.37;102710.38;5087450;28;19924;-70
2023/04/19 11:08:51;;;;;;;;;;;;;;;20.81;40.41;102699.41;5072907;28;19913;-69
2023/04/19 11:11:16;;;;;;;;;;;;;;;20.83;40.30;102702.84;5087593;28;19956;-71
2023/04/19 11:13:42;;;;;;;;;;;;;;;20.85;40.19;102690.03;5070082;28;19984;-71
2023/04/19 11:16:07;;;;;;;;;;;;;;;20.87;40.24;102698.88;5064611;28;19916;-71
2023/04/19 11:18:32;;;;;;;;;;;;;;;20.89;40.31;102701.41;5089045;28;20340;-71
2023/04/19 11:20:59;;;;;;;;;;;;;;;20.90;40.25;102679.66;5066329;28;20358;-71
2023/04/19 11:23:25;;;;;;;;;;;;;;;20.92;40.21;102691.19;5087242;28;19954;-71
2023/04/19 11:25:50;;;;;;;;;;;;;;;20.92;40.37;102680.38;5091675;28;20321;-70
2023/04/19 11:28:16;;;;;;;;;;;;;;;20.93;40.17;102681.22;5066744;28;20456;-71
2023/04/19 11:30:41;;;;;;;;;;;;;;;20.96;40.04;102667.44;5093012;28;19931;-70
2023/04/19 11:33:06;;;;;;;;;;;;;;;20.97;40.27;102672.69;5066836;28;19923;-71
2023/04/19 11:35:31;;;;;;;;;;;;;;;20.98;40.07;102670.84;5083552;28;19920;-72
2023/04/19 11:37:57;;;;;;;;;;;;;;;21.00;40.14;102668.00;5112031;27;19959;-70
2023/04/19 11:40:24;;;;;;;;;;;;;;;21.01;40.09;102667.88;5132140;27;20253;-72
2023/04/19 11:42:59;;;;;;;;;;;;;;;21.02;40.15;102671.41;5115723;27;19916;-72
2023/04/19 11:45:35;;;;;;;;;;;;;;;21.03;40.17;102659.63;5134610;27;19971;-72
2023/04/19 11:48:00;;;;;;;;;;;;;;;21.03;40.33;102660.47;5133173;27;19924;-72
2023/04/19 11:50:35;;;;;;;;;;;;;;;21.06;40.41;102664.72;5139488;27;20539;-72
2023/04/19 11:53:14;;;;;;;;;;;;;;;21.06;40.09;102657.47;5132659;27;19920;-71
2023/04/19 11:55:46;;;;;;;;;;;;;;;21.07;40.22;102655.63;5131846;27;19918;-71
2023/04/19 11:58:24;;;;;;;;;;;;;;;21.08;40.18;102651.94;5140539;27;20272;-71
2023/04/19 12:00:49;;;;;;;;;;;;;;;21.09;40.23;102638.28;5130886;27;19911;-70
2023/04/19 12:03:15;;;;;;;;;;;;;;;21.04;37.01;102645.09;5131334;27;19919;-70
2023/04/19 12:05:50;;;;;;;;;;;;;;;21.04;39.06;102627.03;5132385;27;19916;-71
2023/04/19 12:08:15;;;;;;;;;;;;;;;21.07;40.18;102624.06;5131385;27;19918;-71
2023/04/19 12:10:53;;;;;;;;;;;;;;;21.10;39.97;102631.84;5130870;27;19916;-72
2023/04/19 12:13:19;;;;;;;;;;;;;;;21.11;40.12;102620.06;5130728;27;19924;-72
2023/04/19 12:15:44;;;;;;;;;;;;;;;21.14;40.21;102619.75;5133909;27;19919;-69
2023/04/19 12:18:10;;;;;;;;;;;;;;;21.15;40.20;102623.31;5126795;27;20001;-71
2023/04/19 12:20:37;;;;;;;;;;;;;;;21.17;40.57;102613.22;5118475;27;20419;-73
2023/04/19 12:23:03;;;;;;;;;;;;;;;21.17;40.29;102605.97;5135946;27;19926;-72
2023/04/19 12:25:32;;;;;;;;;;;;;;;21.19;40.35;102608.50;5132026;27;19926;-70
2023/04/19 12:27:57;;;;;;;;;;;;;;;21.19;40.63;102595.84;5133968;27;19915;-71
2023/04/19 12:30:22;;;;;;;;;;;;;;;21.22;40.51;102594.72;5134492;27;19919;-73